createdAt,value
2019-02-11T00:00:32.168Z,99302.69
2019-02-11T00:03:03.440Z,99305.16
2019-02-11T00:05:34.528Z,99318.80
2019-02-11T00:08:05.250Z,99331.31
2019-02-11T00:10:37.322Z,99329.77
2019-02-11T00:13:11.445Z,99339.81
2019-02-11T00:15:41.972Z,99344.09
2019-02-11T00:18:12.472Z,99351.20
2019-02-11T00:20:48.689Z,99377.55
2019-02-11T00:23:20.560Z,99373.11
2019-02-11T00:25:50.859Z,99374.88
2019-02-11T00:28:21.418Z,99405.13
2019-02-11T00:30:51.814Z,99407.11
2019-02-11T00:33:22.217Z,99415.38
2019-02-11T00:35:55.818Z,99425.53
2019-02-11T00:38:27.145Z,99432.38
2019-02-11T00:41:01.698Z,99440.66
2019-02-11T00:43:32.483Z,99450.42
2019-02-11T00:46:06.737Z,99454.43
2019-02-11T00:48:37.695Z,99478.11
2019-02-11T00:51:08.118Z,99471.55
2019-02-11T00:53:40.215Z,99496.46
2019-02-11T00:56:12.406Z,99489.50
2019-02-11T00:58:46.632Z,99503.92
2019-02-11T01:01:22.956Z,99508.31
2019-02-11T01:03:57.104Z,99521.81
2019-02-11T01:06:28.190Z,99527.09
2019-02-11T01:08:59.246Z,99531.33
2019-02-11T01:11:29.910Z,99529.59
2019-02-11T01:14:02.226Z,99541.70
2019-02-11T01:16:36.730Z,99546.53
2019-02-11T01:19:08.471Z,99554.02
2019-02-11T01:21:39.931Z,99550.05
2019-02-11T01:24:11.514Z,99565.84
2019-02-11T01:26:41.832Z,99571.47
2019-02-11T01:29:12.112Z,99577.25
2019-02-11T01:31:43.176Z,99585.49
2019-02-11T01:34:13.404Z,99592.84
2019-02-11T01:36:43.710Z,99603.45
2019-02-11T01:39:14.748Z,99603.88
2019-02-11T01:41:45.045Z,99616.14
2019-02-11T01:44:15.298Z,99618.00
2019-02-11T01:46:45.576Z,99628.91
2019-02-11T01:49:17.586Z,99637.19
2019-02-11T01:51:47.837Z,99639.14
2019-02-11T01:54:18.709Z,99637.70
2019-02-11T01:56:48.911Z,99647.47
2019-02-11T01:59:19.168Z,99648.55
2019-02-11T02:01:49.288Z,99659.88
2019-02-11T02:04:19.717Z,99656.83
2019-02-11T02:06:49.837Z,99652.43
2019-02-11T02:09:20.221Z,99661.23
2019-02-11T02:11:54.737Z,99658.60
2019-02-11T02:14:25.056Z,99659.37
2019-02-11T02:16:55.560Z,99672.56
2019-02-11T02:19:26.998Z,99674.09
2019-02-11T02:21:57.545Z,99682.80
2019-02-11T02:24:28.386Z,99686.66
2019-02-11T02:27:00.650Z,99687.23
2019-02-11T02:29:31.076Z,99696.03
2019-02-11T02:32:21.998Z,99698.91
2019-02-11T02:34:52.277Z,99709.56
2019-02-11T02:37:22.433Z,99711.73
2019-02-11T02:39:52.635Z,99723.51
2019-02-11T02:42:22.936Z,99727.48
2019-02-11T02:44:53.130Z,99727.45
2019-02-11T02:47:23.277Z,99733.67
2019-02-11T02:49:55.499Z,99741.95
2019-02-11T02:52:25.703Z,99747.95
2019-02-11T02:54:56.038Z,99746.61
2019-02-11T02:57:26.267Z,99755.73
2019-02-11T02:59:56.596Z,99754.52
2019-02-11T03:02:26.887Z,99758.35
2019-02-11T03:04:57.157Z,99767.61
2019-02-11T03:07:27.639Z,99769.46
2019-02-11T03:09:58.424Z,99778.14
2019-02-11T03:12:28.619Z,99781.61
2019-02-11T03:14:58.918Z,99791.20
2019-02-11T03:17:29.167Z,99802.17
2019-02-11T03:19:59.433Z,99801.69
2019-02-11T03:22:30.043Z,99801.69
2019-02-11T03:25:00.282Z,99807.77
2019-02-11T03:27:30.455Z,99815.69
2019-02-11T03:30:02.778Z,99817.86
2019-02-11T03:32:33.191Z,99828.80
2019-02-11T03:35:03.363Z,99822.19
2019-02-11T03:37:33.568Z,99823.44
2019-02-11T03:40:03.773Z,99834.78
2019-02-11T03:42:34.030Z,99841.36
2019-02-11T03:45:04.683Z,99844.98
2019-02-11T03:47:51.563Z,99843.09
2019-02-11T03:50:24.783Z,99856.67
2019-02-11T03:52:56.925Z,99867.38
2019-02-11T03:55:27.710Z,99860.31
2019-02-11T03:57:58.276Z,99887.03
2019-02-11T04:00:32.150Z,99894.47
2019-02-11T04:03:05.302Z,99896.18
2019-02-11T04:05:37.159Z,99901.44
2019-02-11T04:08:07.352Z,99907.64
2019-02-11T04:10:37.565Z,99912.89
2019-02-11T04:13:07.739Z,99921.69
2019-02-11T04:15:37.996Z,99928.64
2019-02-11T04:18:08.230Z,99925.55
2019-02-11T04:20:39.014Z,99935.62
2019-02-11T04:23:16.087Z,99938.22
2019-02-11T04:25:46.754Z,99946.11
2019-02-11T04:28:17.523Z,99951.39
2019-02-11T04:30:49.316Z,99956.58
2019-02-11T04:33:19.588Z,99956.08
2019-02-11T04:35:51.644Z,99966.70
2019-02-11T04:38:29.283Z,99967.92
2019-02-11T04:41:03.090Z,99979.37
2019-02-11T04:43:33.314Z,99979.25
2019-02-11T04:46:03.625Z,99995.08
2019-02-11T04:48:33.969Z,99995.14
2019-02-11T04:51:05.596Z,99994.70
2019-02-11T04:53:37.170Z,100004.19
2019-02-11T04:56:15.424Z,100006.50
2019-02-11T04:58:47.764Z,100009.81
2019-02-11T05:01:20.714Z,100012.45
2019-02-11T05:03:53.951Z,100014.70
2019-02-11T05:06:24.638Z,100023.53
2019-02-11T05:08:54.842Z,100021.30
2019-02-11T05:11:24.961Z,100025.59
2019-02-11T05:13:56.335Z,100029.55
2019-02-11T05:16:29.257Z,100034.83
2019-02-11T05:19:00.818Z,100040.16
2019-02-11T05:21:31.005Z,100047.57
2019-02-11T05:24:06.055Z,100040.77
2019-02-11T05:26:38.010Z,100044.31
2019-02-11T05:29:08.377Z,100049.49
2019-02-11T05:31:38.685Z,100057.75
2019-02-11T05:34:09.252Z,100049.41
2019-02-11T05:36:39.459Z,100055.12
2019-02-11T05:39:10.951Z,100050.78
2019-02-11T05:41:41.658Z,100064.42
2019-02-11T05:44:13.443Z,100059.20
2019-02-11T05:46:45.330Z,100071.61
2019-02-11T05:49:15.729Z,100065.91
2019-02-11T05:51:59.339Z,100074.63
2019-02-11T05:54:29.814Z,100073.38
2019-02-11T05:57:00.520Z,100089.17
2019-02-11T05:59:30.537Z,100076.03
2019-02-11T06:02:01.978Z,100084.40
2019-02-11T06:04:33.340Z,100094.47
2019-02-11T06:07:03.710Z,100100.19
2019-02-11T06:09:36.604Z,100103.22
2019-02-11T06:12:07.681Z,100114.14
2019-02-11T06:14:38.123Z,100117.64
2019-02-11T06:17:08.613Z,100111.91
2019-02-11T06:19:38.862Z,100123.46
2019-02-11T06:22:09.989Z,100124.81
2019-02-11T06:24:40.457Z,100134.95
2019-02-11T06:27:12.497Z,100139.20
2019-02-11T06:29:42.953Z,100142.30
2019-02-11T06:32:13.395Z,100158.86
2019-02-11T06:34:44.003Z,100170.76
2019-02-11T06:37:14.177Z,100172.48
2019-02-11T06:39:44.726Z,100179.95
2019-02-11T06:42:14.938Z,100173.27
2019-02-11T06:44:45.117Z,100183.83
2019-02-11T06:47:15.295Z,100183.84
2019-02-11T06:49:45.313Z,100195.62
2019-02-11T06:52:15.701Z,100199.05
2019-02-11T06:54:46.566Z,100196.07
2019-02-11T06:57:19.008Z,100200.94
2019-02-11T06:59:49.436Z,100203.50
2019-02-11T07:02:19.659Z,100211.82
2019-02-11T07:04:49.930Z,100215.29
2019-02-11T07:07:20.620Z,100221.75
2019-02-11T07:09:51.372Z,100234.49
2019-02-11T07:12:23.667Z,100238.00
2019-02-11T07:14:53.915Z,100245.87
2019-02-11T07:17:24.944Z,100257.33
2019-02-11T07:19:55.297Z,100256.50
2019-02-11T07:22:28.131Z,100261.72
2019-02-11T07:24:59.354Z,100273.12
2019-02-11T07:27:29.517Z,100282.00
2019-02-11T07:29:59.710Z,100287.70
2019-02-11T07:32:29.898Z,100310.08
2019-02-11T07:35:00.329Z,100298.66
2019-02-11T07:37:30.529Z,100313.45
2019-02-11T07:40:04.248Z,100320.47
2019-02-11T07:42:58.966Z,100327.57
2019-02-11T07:45:46.126Z,100334.96
2019-02-11T07:48:16.359Z,100341.13
2019-02-11T07:50:46.688Z,100338.11
2019-02-11T07:53:17.346Z,100348.56
2019-02-11T07:55:50.878Z,100348.56
2019-02-11T07:58:21.370Z,100354.30
2019-02-11T08:00:51.727Z,100364.74
2019-02-11T08:03:22.106Z,100379.69
2019-02-11T08:05:52.880Z,100377.94
2019-02-11T08:08:23.260Z,100387.97
2019-02-11T08:10:54.221Z,100386.65
2019-02-11T08:13:24.723Z,100397.98
2019-02-11T08:15:55.190Z,100404.58
2019-02-11T08:18:25.540Z,100424.27
2019-02-11T08:20:55.911Z,100422.53
2019-02-11T08:23:26.044Z,100428.67
2019-02-11T08:25:58.441Z,100433.06
2019-02-11T08:28:30.195Z,100440.95
2019-02-11T08:31:02.478Z,100452.30
2019-02-11T08:33:34.896Z,100452.76
2019-02-11T08:36:05.362Z,100455.40
2019-02-11T08:38:35.510Z,100462.48
2019-02-11T08:41:06.144Z,100460.72
2019-02-11T08:43:36.319Z,100476.50
2019-02-11T08:46:07.562Z,100470.86
2019-02-11T08:48:37.830Z,100489.23
2019-02-11T08:51:08.620Z,100485.27
2019-02-11T08:53:39.797Z,100504.55
2019-02-11T08:56:09.938Z,100507.13
2019-02-11T08:58:40.420Z,100509.30
2019-02-11T09:01:10.687Z,100514.95
2019-02-11T09:03:41.302Z,100502.64
2019-02-11T09:06:11.547Z,100521.87
2019-02-11T09:08:41.803Z,100533.16
2019-02-11T09:11:11.984Z,100513.44
2019-02-11T09:13:42.287Z,100521.33
2019-02-11T09:16:12.459Z,100533.55
2019-02-11T09:18:42.626Z,100535.87
2019-02-11T09:21:13.257Z,100543.81
2019-02-11T09:23:43.776Z,100542.48
2019-02-11T09:26:13.942Z,100552.08
2019-02-11T09:28:44.210Z,100551.17
2019-02-11T09:31:14.443Z,100546.79
2019-02-11T09:33:46.042Z,100557.72
2019-02-11T09:36:16.237Z,100556.78
2019-02-11T09:38:46.484Z,100577.80
2019-02-11T09:41:16.889Z,100581.34
2019-02-11T09:43:47.073Z,100577.28
2019-02-11T09:46:18.587Z,100584.73
2019-02-11T09:48:48.879Z,100589.05
2019-02-11T09:51:19.190Z,100600.95
2019-02-11T09:53:49.759Z,100606.55
2019-02-11T09:56:20.493Z,100615.23
2019-02-11T09:58:50.894Z,100623.23
2019-02-11T10:01:21.931Z,100621.77
2019-02-11T10:03:52.491Z,100629.11
2019-02-11T10:06:22.805Z,100638.27
2019-02-11T10:08:53.286Z,100629.45
2019-02-11T10:11:24.106Z,100636.97
2019-02-11T10:13:54.651Z,100646.21
2019-02-11T10:16:25.722Z,100662.36
2019-02-11T10:18:56.251Z,100662.00
2019-02-11T10:21:26.677Z,100677.03
2019-02-11T10:23:58.722Z,100684.56
2019-02-11T10:26:29.075Z,100686.70
2019-02-11T10:29:00.176Z,100692.78
2019-02-11T10:31:31.507Z,100694.13
2019-02-11T10:34:01.771Z,100697.11
2019-02-11T10:36:32.204Z,100692.37
2019-02-11T10:39:05.065Z,100709.98
2019-02-11T10:41:40.175Z,100708.06
2019-02-11T10:44:10.395Z,100709.84
2019-02-11T10:46:41.773Z,100718.22
2019-02-11T10:49:13.105Z,100728.27
2019-02-11T10:51:44.470Z,100726.02
2019-02-11T10:54:14.485Z,100722.09
2019-02-11T10:56:44.811Z,100727.80
2019-02-11T10:59:15.237Z,100759.02
2019-02-11T11:01:45.566Z,100738.80
2019-02-11T11:04:15.839Z,100761.61
2019-02-11T11:06:46.080Z,100763.38
2019-02-11T11:09:17.861Z,100769.55
2019-02-11T11:11:48.368Z,100782.66
2019-02-11T11:14:18.797Z,100785.30
2019-02-11T11:16:49.139Z,100791.06
2019-02-11T11:19:19.532Z,100773.88
2019-02-11T11:21:50.484Z,100793.67
2019-02-11T11:24:21.385Z,100800.22
2019-02-11T11:26:51.886Z,100794.05
2019-02-11T11:29:22.168Z,100815.52
2019-02-11T11:31:52.440Z,100805.42
2019-02-11T11:34:22.830Z,100809.36
2019-02-11T11:36:53.096Z,100807.56
2019-02-11T11:39:26.264Z,100818.55
2019-02-11T11:41:58.543Z,100824.67
2019-02-11T11:44:29.436Z,100831.77
2019-02-11T11:47:00.098Z,100829.56
2019-02-11T11:49:32.091Z,100837.86
2019-02-11T11:52:02.558Z,100830.34
2019-02-11T11:54:34.931Z,100849.27
2019-02-11T11:57:05.599Z,100844.17
2019-02-11T11:59:37.711Z,100853.91
2019-02-11T12:02:16.199Z,100855.25
2019-02-11T12:04:52.248Z,100856.58
2019-02-11T12:07:24.992Z,100868.81
2019-02-11T12:09:57.516Z,100862.72
2019-02-11T12:15:30.388Z,100860.98
2019-02-11T12:18:10.049Z,100870.20
2019-02-11T12:20:45.170Z,100883.80
2019-02-11T12:23:16.126Z,100868.48
2019-02-11T12:25:48.790Z,100884.70
2019-02-11T12:28:19.265Z,100877.25
2019-02-11T12:30:53.553Z,100885.57
2019-02-11T12:33:23.371Z,100893.82
2019-02-11T12:35:57.706Z,100903.89
2019-02-11T12:38:28.253Z,100892.41
2019-02-11T12:40:59.571Z,100924.88
2019-02-11T12:43:29.781Z,100933.33
2019-02-11T12:45:59.979Z,100953.17
2019-02-11T12:48:30.209Z,100960.22
2019-02-11T12:51:01.683Z,100973.38
2019-02-11T12:53:34.477Z,100963.69
2019-02-11T12:56:06.756Z,100964.56
2019-02-11T12:58:37.147Z,100966.72
2019-02-11T13:01:07.906Z,100972.91
2019-02-11T13:03:38.700Z,100972.86
2019-02-11T13:06:10.272Z,100968.44
2019-02-11T13:08:47.090Z,100978.44
2019-02-11T13:11:17.622Z,100979.77
2019-02-11T13:13:50.643Z,100979.30
2019-02-11T13:16:23.102Z,100982.39
2019-02-11T13:18:53.478Z,101002.65
2019-02-11T13:21:25.629Z,100994.33
2019-02-11T13:23:55.883Z,101027.70
2019-02-11T13:26:26.377Z,101014.56
2019-02-11T13:29:01.165Z,101025.12
2019-02-11T13:31:34.341Z,101038.72
2019-02-11T13:34:10.261Z,101037.38
2019-02-11T13:36:40.768Z,101049.66
2019-02-11T13:39:12.546Z,101044.80
2019-02-11T13:41:44.334Z,101061.98
2019-02-11T13:44:14.610Z,101052.31
2019-02-11T13:46:45.314Z,101065.94
2019-02-11T13:49:17.269Z,101048.83
2019-02-11T13:51:47.976Z,101077.82
2019-02-11T13:54:18.481Z,101072.09
2019-02-11T13:56:54.228Z,101092.76
2019-02-11T13:59:26.778Z,101098.86
2019-02-11T14:01:57.654Z,101085.70
2019-02-11T14:04:29.241Z,101111.19
2019-02-11T14:07:00.528Z,101107.69
2019-02-11T14:09:33.256Z,101115.60
2019-02-11T14:12:25.985Z,101125.25
2019-02-11T14:15:00.793Z,101096.72
2019-02-11T14:17:35.523Z,101118.66
2019-02-11T14:20:07.115Z,101149.83
2019-02-11T14:22:39.128Z,101138.87
2019-02-11T14:25:10.789Z,101164.30
2019-02-11T14:27:42.893Z,101158.59
2019-02-11T14:30:14.211Z,101185.34
2019-02-11T14:32:44.858Z,101180.45
2019-02-11T14:35:16.801Z,101183.08
2019-02-11T14:37:47.228Z,101206.23
2019-02-11T14:40:19.338Z,101213.77
2019-02-11T14:42:49.693Z,101220.81
2019-02-11T14:45:20.003Z,101226.93
2019-02-11T14:47:51.399Z,101230.47
2019-02-11T14:50:21.699Z,101236.60
2019-02-11T14:52:52.080Z,101246.17
2019-02-11T14:55:22.459Z,101260.12
2019-02-11T14:57:53.376Z,101264.86
2019-02-11T15:00:26.872Z,101273.28
2019-02-11T15:02:57.718Z,101284.16
2019-02-11T15:05:30.204Z,101286.42
2019-02-11T15:08:02.996Z,101286.37
2019-02-11T15:10:33.841Z,101275.82
2019-02-11T15:13:04.041Z,101289.72
2019-02-11T15:15:34.682Z,101288.80
2019-02-11T15:18:06.662Z,101290.58
2019-02-11T15:21:00.821Z,101304.60
2019-02-11T15:23:32.655Z,101305.52
2019-02-11T15:26:09.124Z,101309.94
2019-02-11T15:28:40.929Z,101310.79
2019-02-11T15:31:12.891Z,101322.22
2019-02-11T15:33:45.959Z,101318.70
2019-02-11T15:36:16.969Z,101330.50
2019-02-11T15:38:47.718Z,101330.94
2019-02-11T15:41:20.567Z,101354.57
2019-02-11T15:43:50.787Z,101373.77
2019-02-11T15:46:21.279Z,101369.36
2019-02-11T15:48:54.288Z,101383.73
2019-02-11T15:51:24.697Z,101386.83
2019-02-11T15:53:54.895Z,101395.42
2019-02-11T15:56:25.091Z,101391.08
2019-02-11T15:59:02.855Z,101391.94
2019-02-11T16:01:33.472Z,101409.45
2019-02-11T16:04:04.129Z,101429.50
2019-02-11T16:06:40.122Z,101427.29
2019-02-11T16:09:10.920Z,101446.09
2019-02-11T16:11:41.516Z,101440.78
2019-02-11T16:14:11.887Z,101435.92
2019-02-11T16:16:43.318Z,101449.43
2019-02-11T16:19:13.596Z,101455.55
2019-02-11T16:21:45.049Z,101470.45
2019-02-11T16:24:16.013Z,101470.36
2019-02-11T16:26:48.204Z,101483.47
2019-02-11T16:29:18.494Z,101489.55
2019-02-11T16:31:49.009Z,101480.33
2019-02-11T16:34:19.626Z,101503.97
2019-02-11T16:37:02.990Z,101512.27
2019-02-11T16:39:33.718Z,101528.87
2019-02-11T16:42:10.372Z,101522.82
2019-02-11T16:44:46.626Z,101534.16
2019-02-11T16:47:24.583Z,101547.27
2019-02-11T16:49:56.164Z,101548.48
2019-02-11T16:52:26.786Z,101565.63
2019-02-11T16:54:59.780Z,101574.72
2019-02-11T16:57:30.715Z,101586.50
2019-02-11T17:00:03.632Z,101594.36
2019-02-11T17:02:34.952Z,101597.94
2019-02-11T17:05:05.757Z,101614.86
2019-02-11T17:07:41.719Z,101628.45
2019-02-11T17:10:32.354Z,101643.11
2019-02-11T17:13:02.912Z,101652.23
2019-02-11T17:15:37.908Z,101650.11
2019-02-11T17:18:17.982Z,101662.81
2019-02-11T17:20:49.345Z,101670.73
2019-02-11T17:23:21.142Z,101677.98
2019-02-11T17:26:01.802Z,101683.13
2019-02-11T17:28:36.992Z,101682.77
2019-02-11T17:31:09.214Z,101688.09
2019-02-11T17:33:39.606Z,101695.61
2019-02-11T17:36:13.131Z,101703.02
2019-02-11T17:38:49.632Z,101701.75
2019-02-11T17:41:22.967Z,101717.48
2019-02-11T17:43:54.859Z,101728.84
2019-02-11T17:46:25.869Z,101739.72
2019-02-11T17:48:57.523Z,101755.18
2019-02-11T17:51:28.219Z,101752.72
2019-02-11T17:53:58.489Z,101781.38
2019-02-11T17:56:29.582Z,101777.47
2019-02-11T17:58:59.799Z,101779.13
2019-02-11T18:01:30.224Z,101780.73
2019-02-11T18:04:01.279Z,101786.24
2019-02-11T18:06:33.024Z,101791.14
2019-02-11T18:09:08.085Z,101802.73
2019-02-11T18:11:38.711Z,101803.77
2019-02-11T18:14:09.546Z,101815.00
2019-02-11T18:16:43.539Z,101823.31
2019-02-11T18:19:14.545Z,101813.51
2019-02-11T18:21:48.761Z,101816.78
2019-02-11T18:24:26.261Z,101817.36
2019-02-11T18:26:58.733Z,101818.36
2019-02-11T18:29:32.558Z,101817.54
2019-02-11T18:32:02.989Z,101821.62
2019-02-11T18:34:36.027Z,101820.74
2019-02-11T18:37:15.121Z,101825.26
2019-02-11T18:39:45.514Z,101827.53
2019-02-11T18:42:17.297Z,101832.62
2019-02-11T18:45:02.785Z,101833.87
2019-02-11T18:47:42.158Z,101843.06
2019-02-11T18:50:14.535Z,101845.13
2019-02-11T18:52:44.966Z,101831.52
2019-02-11T18:55:18.339Z,101834.16
2019-02-11T18:57:48.581Z,101841.45
2019-02-11T19:00:26.548Z,101847.49
2019-02-11T19:02:56.738Z,101839.36
2019-02-11T19:05:27.494Z,101843.30
2019-02-11T19:07:57.845Z,101850.55
2019-02-11T19:10:29.659Z,101852.25
2019-02-11T19:13:06.522Z,101848.31
2019-02-11T19:15:41.381Z,101859.27
2019-02-11T19:18:11.680Z,101857.53
2019-02-11T19:20:41.873Z,101869.80
2019-02-11T19:23:12.706Z,101866.25
2019-02-11T19:25:48.818Z,101868.50
2019-02-11T19:28:22.421Z,101877.71
2019-02-11T19:30:55.125Z,101880.05
2019-02-11T19:33:27.926Z,101889.24
2019-02-11T19:35:58.504Z,101901.09
2019-02-11T19:38:28.691Z,101913.18
2019-02-11T19:40:59.559Z,101906.68
2019-02-11T19:43:38.846Z,101903.80
2019-02-11T19:46:15.975Z,101910.80
2019-02-11T19:48:50.436Z,101920.27
2019-02-11T19:51:20.916Z,101913.83
2019-02-11T19:53:51.553Z,101921.18
2019-02-11T19:56:28.302Z,101941.38
2019-02-11T19:59:01.087Z,101938.63
2019-02-11T20:01:32.260Z,101928.49
2019-02-11T20:04:07.726Z,101939.14
2019-02-11T20:06:37.310Z,101948.44
2019-02-11T20:09:09.854Z,101959.23
2019-02-11T20:11:50.286Z,101954.52
2019-02-11T20:14:22.498Z,101964.78
2019-02-11T20:16:58.132Z,101966.56
2019-02-11T20:19:28.764Z,101967.84
2019-02-11T20:22:02.900Z,101968.28
2019-02-11T20:24:38.793Z,101966.73
2019-02-11T20:27:17.972Z,101967.95
2019-02-11T20:29:50.353Z,101968.02
2019-02-11T20:32:22.232Z,101953.77
2019-02-11T20:34:52.708Z,101962.83
2019-02-11T20:37:24.811Z,101966.73
2019-02-11T20:40:03.534Z,101971.21
2019-02-11T20:42:32.603Z,101973.66
2019-02-11T20:45:07.141Z,101967.12
2019-02-11T20:47:38.916Z,101972.28
2019-02-11T20:50:12.073Z,101975.41
2019-02-11T20:52:42.605Z,101981.38
2019-02-11T20:55:13.328Z,101988.53
2019-02-11T20:57:43.927Z,101994.32
2019-02-11T21:00:19.168Z,102005.36
2019-02-11T21:02:49.818Z,102004.52
2019-02-11T21:05:20.415Z,102014.38
2019-02-11T21:07:59.480Z,102018.72
2019-02-11T21:10:36.431Z,102028.45
2019-02-11T21:13:08.621Z,102031.92
2019-02-11T21:15:39.071Z,102042.12
2019-02-11T21:18:09.363Z,102036.05
2019-02-11T21:20:40.150Z,102043.05
2019-02-11T21:23:12.479Z,102050.92
2019-02-11T21:25:42.657Z,102057.63
2019-02-11T21:28:13.540Z,102058.94
2019-02-11T21:30:43.659Z,102057.09
2019-02-11T21:33:13.882Z,102058.48
2019-02-11T21:35:44.040Z,102071.84
2019-02-11T21:38:14.267Z,102064.20
2019-02-11T21:40:44.869Z,102069.99
2019-02-11T21:43:23.145Z,102058.14
2019-02-11T21:45:58.326Z,102069.99
2019-02-11T21:48:28.787Z,102067.77
2019-02-11T21:50:58.957Z,102068.08
2019-02-11T21:53:29.780Z,102067.27
2019-02-11T21:56:00.211Z,102074.54
2019-02-11T21:58:30.448Z,102065.28
2019-02-11T22:01:08.467Z,102074.70
2019-02-11T22:03:40.243Z,102081.55
2019-02-11T22:06:11.174Z,102083.90
2019-02-11T22:08:43.661Z,102071.78
2019-02-11T22:11:17.263Z,102083.29
2019-02-11T22:13:49.100Z,102080.02
2019-02-11T22:16:21.797Z,102080.09
2019-02-11T22:18:52.209Z,102086.36
2019-02-11T22:21:22.373Z,102082.59
2019-02-11T22:23:52.702Z,102090.83
2019-02-11T22:26:22.859Z,102096.69
2019-02-11T22:28:53.099Z,102102.81
2019-02-11T22:31:27.740Z,102101.50
2019-02-11T22:33:59.127Z,102109.34
2019-02-11T22:36:30.829Z,102098.40
2019-02-11T22:39:05.383Z,102106.34
2019-02-11T22:41:38.931Z,102109.67
2019-02-11T22:44:10.672Z,102108.14
2019-02-11T22:46:44.030Z,102113.36
2019-02-11T22:49:14.325Z,102122.47
2019-02-11T22:51:49.627Z,102123.38
2019-02-11T22:54:25.582Z,102122.94
2019-02-11T22:56:56.147Z,102129.98
2019-02-11T22:59:26.403Z,102122.83
2019-02-11T23:01:57.125Z,102131.52
2019-02-11T23:04:28.298Z,102137.97
2019-02-11T23:07:01.214Z,102156.45
2019-02-11T23:09:32.934Z,102158.79
2019-02-11T23:12:04.384Z,102160.21
2019-02-11T23:14:42.510Z,102164.52
2019-02-11T23:17:20.331Z,102155.50
2019-02-11T23:19:52.136Z,102145.17
2019-02-11T23:22:22.361Z,102151.42
2019-02-11T23:24:55.472Z,102150.07
2019-02-11T23:27:28.390Z,102152.05
2019-02-11T23:30:36.022Z,102147.70
2019-02-11T23:33:16.136Z,102156.34
2019-02-11T23:35:48.681Z,102151.56
2019-02-11T23:38:19.212Z,102161.19
2019-02-11T23:40:49.501Z,102157.91
2019-02-11T23:43:19.749Z,102158.05
2019-02-11T23:45:52.763Z,102168.22
2019-02-11T23:48:35.658Z,102160.97
2019-02-11T23:51:05.879Z,102168.92
2019-02-11T23:53:36.187Z,102172.13
2019-02-11T23:56:06.242Z,102172.49
2019-02-11T23:58:42.343Z,102166.40
